Mohammedbey — V3TG8 — position and weather

sailwx.info

Track history (hours):
 
Tides and Currents Weather Stations Pressure Air Temp Water Temp Dewpoint Dewpoint Depression Visibility Wind Speed Wind Dir Waves Ship Positions

Mohammedbey

Last reported at 2018-Jan-19 13:39 UTC. Time now 2018-Jan-19 21:41 UTC.
Position N 44°46' E 029°37'.

Length 120 m; draft 5 m.

Type: Cargo ship. MMSI: 312600000.

Date/timePositionNaut miles runAvg speedWind from/ knotsBaromVisibWave heightAir tempDewpointWater temp
2018-Jan-19 13:39N 44°46' E 029°37'1011.0
2018-Jan-19 12:43N 44°40' E 029°25'311.0
2018-Jan-19 12:29N 44°39' E 029°22'611.4
2018-Jan-19 12:00N 44°36' E 029°16'611.0
2018-Jan-19 11:30N 44°30' E 029°13'510.9
2018-Jan-19 11:00N 44°25' E 029°11'510.6
2018-Jan-19 10:30N 44°20' E 029°09'510.6
2018-Jan-19 10:00N 44°15' E 029°06'510.8
2018-Jan-19 09:30N 44°10' E 029°04'510.9
2018-Jan-19 09:00N 44°05' E 029°01'510.7
2018-Jan-19 08:30N 44°00' E 028°58'510.6
2018-Jan-19 08:00N 43°55' E 028°55'510.6
2018-Jan-19 07:30N 43°50' E 028°52'510.4
2018-Jan-19 07:00N 43°46' E 028°48'510.4
2018-Jan-19 06:30N 43°42' E 028°44'510.2
2018-Jan-19 06:00N 43°37' E 028°41'510.2
2018-Jan-19 05:30N 43°32' E 028°39'  
2018-Jan-11 10:32N 37°52' E 025°51'9 9.8
2018-Jan-11 09:39N 37°44' E 025°53'4 9.6
2018-Jan-11 09:13N 37°40' E 025°53'2 9.7
2018-Jan-11 09:00N 37°38' E 025°53'5 9.8
2018-Jan-11 08:30N 37°33' E 025°54'5 9.4
2018-Jan-11 08:00N 37°28' E 025°55'4 8.6
2018-Jan-11 07:30N 37°24' E 025°57'5 9.1
2018-Jan-11 07:00N 37°20' E 025°60'5 9.6
2018-Jan-11 06:30N 37°16' E 026°03'5 9.9
2018-Jan-11 06:00N 37°12' E 026°05'5 9.8
2018-Jan-11 05:30N 37°07' E 026°08'510.1
2018-Jan-11 05:00N 37°02' E 026°11'510.6
2018-Jan-11 04:30N 36°58' E 026°13'510.1
2018-Jan-11 04:00N 36°54' E 026°18'5 9.8
2018-Jan-11 03:30N 36°51' E 026°23'510.0
2018-Jan-11 03:00N 36°48' E 026°27'510.4
2018-Jan-11 02:30N 36°44' E 026°31'510.6
2018-Jan-11 02:00N 36°40' E 026°36'510.5
2018-Jan-11 01:30N 36°36' E 026°40'510.3
2018-Jan-11 01:00N 36°32' E 026°45'9210.2
2018-Jan-10 15:57N 35°25' E 028°03'6110.0
2018-Jan-10 09:50N 34°41' E 028°54'12 9.6
2018-Jan-10 08:34N 34°32' E 029°04'1 9.6
2018-Jan-10 08:30N 34°31' E 029°04'  
Track history (hours):
 
Tides and Currents Weather Stations Pressure Air Temp Water Temp Dewpoint Dewpoint Depression Visibility Wind Speed Wind Dir Waves Ship Positions

Mohammedbey

Last reported at 2018-Jan-19 13:39 UTC. Time now 2018-Jan-19 21:41 UTC.
Position N 44°46' E 029°37'.

Length 120 m; draft 5 m.

Type: Cargo ship. MMSI: 312600000.

Date/timePositionNaut miles runAvg speedWind from/ knotsBaromVisibWave heightAir tempDewpointWater temp
2018-Jan-19 13:39N 44°46' E 029°37'1011.0
2018-Jan-19 12:43N 44°40' E 029°25'311.0
2018-Jan-19 12:29N 44°39' E 029°22'611.4
2018-Jan-19 12:00N 44°36' E 029°16'611.0
2018-Jan-19 11:30N 44°30' E 029°13'510.9
2018-Jan-19 11:00N 44°25' E 029°11'510.6
2018-Jan-19 10:30N 44°20' E 029°09'510.6
2018-Jan-19 10:00N 44°15' E 029°06'510.8
2018-Jan-19 09:30N 44°10' E 029°04'510.9
2018-Jan-19 09:00N 44°05' E 029°01'510.7
2018-Jan-19 08:30N 44°00' E 028°58'510.6
2018-Jan-19 08:00N 43°55' E 028°55'510.6
2018-Jan-19 07:30N 43°50' E 028°52'510.4
2018-Jan-19 07:00N 43°46' E 028°48'510.4
2018-Jan-19 06:30N 43°42' E 028°44'510.2
2018-Jan-19 06:00N 43°37' E 028°41'510.2
2018-Jan-19 05:30N 43°32' E 028°39'  
2018-Jan-11 10:32N 37°52' E 025°51'9 9.8
2018-Jan-11 09:39N 37°44' E 025°53'4 9.6
2018-Jan-11 09:13N 37°40' E 025°53'2 9.7
2018-Jan-11 09:00N 37°38' E 025°53'5 9.8
2018-Jan-11 08:30N 37°33' E 025°54'5 9.4
2018-Jan-11 08:00N 37°28' E 025°55'4 8.6
2018-Jan-11 07:30N 37°24' E 025°57'5 9.1
2018-Jan-11 07:00N 37°20' E 025°60'5 9.6
2018-Jan-11 06:30N 37°16' E 026°03'5 9.9
2018-Jan-11 06:00N 37°12' E 026°05'5 9.8
2018-Jan-11 05:30N 37°07' E 026°08'510.1
2018-Jan-11 05:00N 37°02' E 026°11'510.6
2018-Jan-11 04:30N 36°58' E 026°13'510.1
2018-Jan-11 04:00N 36°54' E 026°18'5 9.8
2018-Jan-11 03:30N 36°51' E 026°23'510.0
2018-Jan-11 03:00N 36°48' E 026°27'510.4
2018-Jan-11 02:30N 36°44' E 026°31'510.6
2018-Jan-11 02:00N 36°40' E 026°36'510.5
2018-Jan-11 01:30N 36°36' E 026°40'510.3
2018-Jan-11 01:00N 36°32' E 026°45'9210.2
2018-Jan-10 15:57N 35°25' E 028°03'6110.0
2018-Jan-10 09:50N 34°41' E 028°54'12 9.6
2018-Jan-10 08:34N 34°32' E 029°04'1 9.6
2018-Jan-10 08:30N 34°31' E 029°04'  

Dump ship's entire track history